sensor_id;sensor_type;location;lat;lon;timestamp;pressure;altitude;pressure_sealevel;temperature
82297;BMP280;71899;51.992;8.648;2024-02-16T00:00:10;99762.84;;;12.09
82297;BMP280;71899;51.992;8.648;2024-02-16T00:02:40;99761.88;;;12.10
82297;BMP280;71899;51.992;8.648;2024-02-16T00:05:06;99761.53;;;12.14
82297;BMP280;71899;51.992;8.648;2024-02-16T00:07:33;99757.59;;;12.09
82297;BMP280;71899;51.992;8.648;2024-02-16T00:09:58;99758.66;;;12.06
82297;BMP280;71899;51.992;8.648;2024-02-16T00:12:23;99764.75;;;12.18
82297;BMP280;71899;51.992;8.648;2024-02-16T00:14:49;99767.38;;;12.18
82297;BMP280;71899;51.992;8.648;2024-02-16T00:17:14;99766.31;;;12.09
82297;BMP280;71899;51.992;8.648;2024-02-16T00:19:40;99769.88;;;12.08
82297;BMP280;71899;51.992;8.648;2024-02-16T00:22:05;99760.06;;;11.99
82297;BMP280;71899;51.992;8.648;2024-02-16T00:24:33;99755.31;;;12.04
82297;BMP280;71899;51.992;8.648;2024-02-16T00:26:59;99746.00;;;11.89
82297;BMP280;71899;51.992;8.648;2024-02-16T00:29:24;99745.44;;;11.97
82297;BMP280;71899;51.992;8.648;2024-02-16T00:31:50;99754.31;;;11.83
82297;BMP280;71899;51.992;8.648;2024-02-16T00:34:15;99753.03;;;11.88
82297;BMP280;71899;51.992;8.648;2024-02-16T00:36:40;99749.78;;;11.85
82297;BMP280;71899;51.992;8.648;2024-02-16T00:39:06;99747.41;;;11.82
82297;BMP280;71899;51.992;8.648;2024-02-16T00:41:31;99760.81;;;12.01
82297;BMP280;71899;51.992;8.648;2024-02-16T00:43:56;99752.06;;;11.89
82297;BMP280;71899;51.992;8.648;2024-02-16T00:46:22;99747.31;;;11.83
82297;BMP280;71899;51.992;8.648;2024-02-16T00:48:51;99745.88;;;11.79
82297;BMP280;71899;51.992;8.648;2024-02-16T00:51:17;99752.38;;;12.09
82297;BMP280;71899;51.992;8.648;2024-02-16T00:53:42;99748.78;;;12.21
82297;BMP280;71899;51.992;8.648;2024-02-16T00:56:07;99741.88;;;11.98
82297;BMP280;71899;51.992;8.648;2024-02-16T00:58:34;99749.13;;;11.94
82297;BMP280;71899;51.992;8.648;2024-02-16T01:00:59;99743.75;;;11.96
82297;BMP280;71899;51.992;8.648;2024-02-16T01:03:24;99746.16;;;12.10
82297;BMP280;71899;51.992;8.648;2024-02-16T01:05:52;99744.72;;;12.17
82297;BMP280;71899;51.992;8.648;2024-02-16T01:08:17;99745.72;;;12.16
82297;BMP280;71899;51.992;8.648;2024-02-16T01:10:42;99743.56;;;12.21
82297;BMP280;71899;51.992;8.648;2024-02-16T01:13:08;99735.94;;;12.29
82297;BMP280;71899;51.992;8.648;2024-02-16T01:15:33;99737.84;;;12.16
82297;BMP280;71899;51.992;8.648;2024-02-16T01:17:58;99741.50;;;12.13
82297;BMP280;71899;51.992;8.648;2024-02-16T01:20:25;99745.34;;;12.20
82297;BMP280;71899;51.992;8.648;2024-02-16T01:22:51;99737.72;;;12.28
82297;BMP280;71899;51.992;8.648;2024-02-16T01:25:16;99734.50;;;12.25
82297;BMP280;71899;51.992;8.648;2024-02-16T01:27:41;99734.03;;;12.31
82297;BMP280;71899;51.992;8.648;2024-02-16T01:30:07;99727.13;;;12.30
82297;BMP280;71899;51.992;8.648;2024-02-16T01:32:32;99735.25;;;12.27
82297;BMP280;71899;51.992;8.648;2024-02-16T01:34:59;99738.22;;;12.22
82297;BMP280;71899;51.992;8.648;2024-02-16T01:37:25;99735.34;;;12.14
82297;BMP280;71899;51.992;8.648;2024-02-16T01:39:50;99737.91;;;11.92
82297;BMP280;71899;51.992;8.648;2024-02-16T01:42:15;99741.50;;;11.91
82297;BMP280;71899;51.992;8.648;2024-02-16T01:45:13;99738.16;;;11.89
82297;BMP280;71899;51.992;8.648;2024-02-16T01:47:38;99733.41;;;11.94
82297;BMP280;71899;51.992;8.648;2024-02-16T01:50:05;99728.41;;;12.02
82297;BMP280;71899;51.992;8.648;2024-02-16T01:52:30;99737.91;;;11.92
82297;BMP280;71899;51.992;8.648;2024-02-16T01:54:59;99733.47;;;11.81
82297;BMP280;71899;51.992;8.648;2024-02-16T01:57:24;99737.75;;;11.71
82297;BMP280;71899;51.992;8.648;2024-02-16T01:59:50;99729.81;;;11.84
82297;BMP280;71899;51.992;8.648;2024-02-16T02:02:15;99723.25;;;11.78
82297;BMP280;71899;51.992;8.648;2024-02-16T02:04:40;99717.53;;;11.73
82297;BMP280;71899;51.992;8.648;2024-02-16T02:07:16;99724.41;;;11.74
82297;BMP280;71899;51.992;8.648;2024-02-16T02:09:42;99731.09;;;11.78
82297;BMP280;71899;51.992;8.648;2024-02-16T02:12:10;99717.09;;;11.67
82297;BMP280;71899;51.992;8.648;2024-02-16T02:14:36;99718.34;;;11.74
82297;BMP280;71899;51.992;8.648;2024-02-16T02:17:04;99716.78;;;11.71
82297;BMP280;71899;51.992;8.648;2024-02-16T02:19:29;99720.31;;;11.94
82297;BMP280;71899;51.992;8.648;2024-02-16T02:21:56;99717.78;;;11.92
82297;BMP280;71899;51.992;8.648;2024-02-16T02:24:21;99713.72;;;11.88
82297;BMP280;71899;51.992;8.648;2024-02-16T02:26:47;99706.31;;;11.71
82297;BMP280;71899;51.992;8.648;2024-02-16T02:29:12;99699.06;;;11.75
82297;BMP280;71899;51.992;8.648;2024-02-16T02:31:38;99687.75;;;11.74
82297;BMP280;71899;51.992;8.648;2024-02-16T02:34:03;99692.81;;;12.11
82297;BMP280;71899;51.992;8.648;2024-02-16T02:36:31;99684.69;;;12.03
82297;BMP280;71899;51.992;8.648;2024-02-16T02:38:56;99675.28;;;11.89
82297;BMP280;71899;51.992;8.648;2024-02-16T02:41:22;99669.31;;;11.76
82297;BMP280;71899;51.992;8.648;2024-02-16T02:43:48;99675.53;;;11.97
82297;BMP280;71899;51.992;8.648;2024-02-16T02:46:16;99671.75;;;12.01
82297;BMP280;71899;51.992;8.648;2024-02-16T02:48:43;99668.97;;;12.03
82297;BMP280;71899;51.992;8.648;2024-02-16T02:51:09;99677.09;;;12.22
82297;BMP280;71899;51.992;8.648;2024-02-16T02:53:35;99666.03;;;12.18
82297;BMP280;71899;51.992;8.648;2024-02-16T02:56:00;99664.09;;;12.20
82297;BMP280;71899;51.992;8.648;2024-02-16T02:58:25;99668.03;;;12.37
82297;BMP280;71899;51.992;8.648;2024-02-16T03:00:50;99664.56;;;12.48
82297;BMP280;71899;51.992;8.648;2024-02-16T03:03:16;99671.25;;;12.29
82297;BMP280;71899;51.992;8.648;2024-02-16T03:05:42;99651.94;;;12.41
82297;BMP280;71899;51.992;8.648;2024-02-16T03:08:07;99658.00;;;12.64
82297;BMP280;71899;51.992;8.648;2024-02-16T03:10:33;99667.00;;;12.82
82297;BMP280;71899;51.992;8.648;2024-02-16T03:13:03;99667.91;;;12.50
82297;BMP280;71899;51.992;8.648;2024-02-16T03:15:28;99662.31;;;12.21
82297;BMP280;71899;51.992;8.648;2024-02-16T03:17:57;99664.00;;;12.11
82297;BMP280;71899;51.992;8.648;2024-02-16T03:20:22;99659.56;;;12.00
82297;BMP280;71899;51.992;8.648;2024-02-16T03:22:48;99657.31;;;11.96
82297;BMP280;71899;51.992;8.648;2024-02-16T03:25:14;99657.31;;;12.07
82297;BMP280;71899;51.992;8.648;2024-02-16T03:27:40;99659.00;;;12.19
82297;BMP280;71899;51.992;8.648;2024-02-16T03:30:07;99650.53;;;12.37
82297;BMP280;71899;51.992;8.648;2024-02-16T03:32:33;99652.66;;;12.43
82297;BMP280;71899;51.992;8.648;2024-02-16T03:34:58;99663.25;;;12.53
82297;BMP280;71899;51.992;8.648;2024-02-16T03:37:24;99658.84;;;12.54
82297;BMP280;71899;51.992;8.648;2024-02-16T03:39:49;99652.84;;;12.63
82297;BMP280;71899;51.992;8.648;2024-02-16T03:42:16;99650.28;;;12.52
82297;BMP280;71899;51.992;8.648;2024-02-16T03:44:42;99654.19;;;12.46
82297;BMP280;71899;51.992;8.648;2024-02-16T03:47:07;99650.50;;;12.49
82297;BMP280;71899;51.992;8.648;2024-02-16T03:49:33;99643.59;;;12.48
82297;BMP280;71899;51.992;8.648;2024-02-16T03:51:59;99652.75;;;12.53
82297;BMP280;71899;51.992;8.648;2024-02-16T03:54:24;99650.28;;;12.52
82297;BMP280;71899;51.992;8.648;2024-02-16T03:56:55;99653.81;;;12.62
82297;BMP280;71899;51.992;8.648;2024-02-16T03:59:21;99655.97;;;12.57
82297;BMP280;71899;51.992;8.648;2024-02-16T04:01:46;99644.91;;;12.53
82297;BMP280;71899;51.992;8.648;2024-02-16T04:04:12;99645.97;;;12.62
82297;BMP280;71899;51.992;8.648;2024-02-16T04:06:38;99644.75;;;12.66
82297;BMP280;71899;51.992;8.648;2024-02-16T04:09:03;99641.63;;;12.72
82297;BMP280;71899;51.992;8.648;2024-02-16T04:11:31;99643.28;;;12.84
82297;BMP280;71899;51.992;8.648;2024-02-16T04:13:57;99650.31;;;12.83
82297;BMP280;71899;51.992;8.648;2024-02-16T04:16:22;99647.56;;;12.85
82297;BMP280;71899;51.992;8.648;2024-02-16T04:18:49;99646.34;;;12.89
82297;BMP280;71899;51.992;8.648;2024-02-16T04:21:15;99642.78;;;12.90
82297;BMP280;71899;51.992;8.648;2024-02-16T04:23:40;99637.28;;;12.93
82297;BMP280;71899;51.992;8.648;2024-02-16T04:26:05;99640.84;;;12.92
82297;BMP280;71899;51.992;8.648;2024-02-16T04:28:32;99639.94;;;12.82
82297;BMP280;71899;51.992;8.648;2024-02-16T04:30:57;99652.63;;;13.09
82297;BMP280;71899;51.992;8.648;2024-02-16T04:33:22;99643.22;;;12.95
82297;BMP280;71899;51.992;8.648;2024-02-16T04:35:48;99651.56;;;13.00
82297;BMP280;71899;51.992;8.648;2024-02-16T04:38:15;99646.00;;;12.93
82297;BMP280;71899;51.992;8.648;2024-02-16T04:40:41;99655.34;;;13.07
82297;BMP280;71899;51.992;8.648;2024-02-16T04:43:06;99653.69;;;13.06
82297;BMP280;71899;51.992;8.648;2024-02-16T04:45:31;99652.50;;;13.10
82297;BMP280;71899;51.992;8.648;2024-02-16T04:47:56;99643.59;;;13.02
82297;BMP280;71899;51.992;8.648;2024-02-16T04:50:22;99643.94;;;12.97
82297;BMP280;71899;51.992;8.648;2024-02-16T04:52:47;99632.03;;;12.93
82297;BMP280;71899;51.992;8.648;2024-02-16T04:55:13;99640.84;;;12.92
82297;BMP280;71899;51.992;8.648;2024-02-16T04:57:38;99625.66;;;12.75
82297;BMP280;71899;51.992;8.648;2024-02-16T05:00:04;99647.22;;;12.78
82297;BMP280;71899;51.992;8.648;2024-02-16T05:02:29;99649.00;;;12.78
82297;BMP280;71899;51.992;8.648;2024-02-16T05:04:55;99654.47;;;12.86
82297;BMP280;71899;51.992;8.648;2024-02-16T05:07:21;99656.16;;;12.87
82297;BMP280;71899;51.992;8.648;2024-02-16T05:09:47;99651.25;;;12.93
82297;BMP280;71899;51.992;8.648;2024-02-16T05:12:12;99643.63;;;12.90
82297;BMP280;71899;51.992;8.648;2024-02-16T05:14:38;99632.00;;;12.72
82297;BMP280;71899;51.992;8.648;2024-02-16T05:17:03;99638.03;;;12.84
82297;BMP280;71899;51.992;8.648;2024-02-16T05:19:32;99625.78;;;12.73
82297;BMP280;71899;51.992;8.648;2024-02-16T05:21:58;99634.34;;;12.75
82297;BMP280;71899;51.992;8.648;2024-02-16T05:24:23;99620.31;;;12.65
82297;BMP280;71899;51.992;8.648;2024-02-16T05:26:49;99618.53;;;12.66
82297;BMP280;71899;51.992;8.648;2024-02-16T05:29:16;99630.81;;;12.65
82297;BMP280;71899;51.992;8.648;2024-02-16T05:31:41;99639.34;;;12.78
82297;BMP280;71899;51.992;8.648;2024-02-16T05:34:07;99630.28;;;12.82
82297;BMP280;71899;51.992;8.648;2024-02-16T05:36:33;99634.44;;;12.85
82297;BMP280;71899;51.992;8.648;2024-02-16T05:39:01;99640.28;;;12.88
82297;BMP280;71899;51.992;8.648;2024-02-16T05:41:34;99634.41;;;12.96
82297;BMP280;71899;51.992;8.648;2024-02-16T05:44:01;99632.09;;;13.03
82297;BMP280;71899;51.992;8.648;2024-02-16T05:46:28;99616.56;;;12.90
82297;BMP280;71899;51.992;8.648;2024-02-16T05:48:53;99607.25;;;12.86
82297;BMP280;71899;51.992;8.648;2024-02-16T05:51:18;99617.75;;;12.86
82297;BMP280;71899;51.992;8.648;2024-02-16T05:53:43;99615.59;;;12.91
82297;BMP280;71899;51.992;8.648;2024-02-16T05:56:10;99614.66;;;12.81
82297;BMP280;71899;51.992;8.648;2024-02-16T05:58:35;99615.81;;;12.88
82297;BMP280;71899;51.992;8.648;2024-02-16T06:01:01;99622.50;;;12.92
82297;BMP280;71899;51.992;8.648;2024-02-16T06:03:26;99625.72;;;12.84
82297;BMP280;71899;51.992;8.648;2024-02-16T06:05:54;99630.19;;;12.84
82297;BMP280;71899;51.992;8.648;2024-02-16T06:08:19;99630.41;;;12.81
82297;BMP280;71899;51.992;8.648;2024-02-16T06:10:45;99625.38;;;12.89
82297;BMP280;71899;51.992;8.648;2024-02-16T06:13:17;99623.63;;;12.78
82297;BMP280;71899;51.992;8.648;2024-02-16T06:15:43;99619.38;;;12.66
82297;BMP280;71899;51.992;8.648;2024-02-16T06:18:08;99619.75;;;12.62
82297;BMP280;71899;51.992;8.648;2024-02-16T06:20:34;99629.88;;;12.66
82297;BMP280;71899;51.992;8.648;2024-02-16T06:23:00;99631.50;;;12.67
82297;BMP280;71899;51.992;8.648;2024-02-16T06:25:25;99628.16;;;12.76
82297;BMP280;71899;51.992;8.648;2024-02-16T06:27:50;99629.81;;;12.77
82297;BMP280;71899;51.992;8.648;2024-02-16T06:30:15;99625.97;;;12.81
82297;BMP280;71899;51.992;8.648;2024-02-16T06:32:41;99631.56;;;12.88
82297;BMP280;71899;51.992;8.648;2024-02-16T06:35:07;99634.06;;;12.89
82297;BMP280;71899;51.992;8.648;2024-02-16T06:37:33;99632.97;;;12.92
82297;BMP280;71899;51.992;8.648;2024-02-16T06:39:58;99637.16;;;12.95
82297;BMP280;71899;51.992;8.648;2024-02-16T06:42:24;99648.72;;;12.92
82297;BMP280;71899;51.992;8.648;2024-02-16T06:44:49;99643.38;;;12.93
82297;BMP280;71899;51.992;8.648;2024-02-16T06:47:15;99645.16;;;12.93
82297;BMP280;71899;51.992;8.648;2024-02-16T06:49:40;99640.38;;;12.98
82297;BMP280;71899;51.992;8.648;2024-02-16T06:52:05;99641.06;;;13.00
82297;BMP280;71899;51.992;8.648;2024-02-16T06:54:31;99642.28;;;12.96
82297;BMP280;71899;51.992;8.648;2024-02-16T06:56:56;99648.00;;;13.01
82297;BMP280;71899;51.992;8.648;2024-02-16T06:59:21;99644.28;;;13.04
82297;BMP280;71899;51.992;8.648;2024-02-16T07:01:47;99652.97;;;13.15
82297;BMP280;71899;51.992;8.648;2024-02-16T07:04:13;99654.50;;;13.18
82297;BMP280;71899;51.992;8.648;2024-02-16T07:06:38;99655.31;;;13.29
82297;BMP280;71899;51.992;8.648;2024-02-16T07:09:03;99654.34;;;13.30
82297;BMP280;71899;51.992;8.648;2024-02-16T07:11:29;99645.13;;;13.36
82297;BMP280;71899;51.992;8.648;2024-02-16T07:13:55;99656.31;;;13.38
82297;BMP280;71899;51.992;8.648;2024-02-16T07:16:21;99654.84;;;13.45
82297;BMP280;71899;51.992;8.648;2024-02-16T07:18:47;99657.56;;;13.55
82297;BMP280;71899;51.992;8.648;2024-02-16T07:21:12;99645.44;;;13.43
82297;BMP280;71899;51.992;8.648;2024-02-16T07:23:38;99668.81;;;13.66
82297;BMP280;71899;51.992;8.648;2024-02-16T07:26:04;99661.06;;;13.65
82297;BMP280;71899;51.992;8.648;2024-02-16T07:28:29;99666.63;;;13.92
82297;BMP280;71899;51.992;8.648;2024-02-16T07:30:55;99671.19;;;13.90
82297;BMP280;71899;51.992;8.648;2024-02-16T07:33:20;99661.88;;;13.86
82297;BMP280;71899;51.992;8.648;2024-02-16T07:35:46;99672.50;;;14.05
82297;BMP280;71899;51.992;8.648;2024-02-16T07:38:12;99677.56;;;14.27
82297;BMP280;71899;51.992;8.648;2024-02-16T07:40:37;99679.38;;;14.27
82297;BMP280;71899;51.992;8.648;2024-02-16T07:43:03;99674.13;;;13.97
82297;BMP280;71899;51.992;8.648;2024-02-16T07:45:29;99673.09;;;13.88
82297;BMP280;71899;51.992;8.648;2024-02-16T07:47:56;99662.28;;;13.81
82297;BMP280;71899;51.992;8.648;2024-02-16T07:50:21;99659.59;;;13.72
82297;BMP280;71899;51.992;8.648;2024-02-16T07:52:48;99672.41;;;13.65
82297;BMP280;71899;51.992;8.648;2024-02-16T07:55:13;99641.41;;;13.80
82297;BMP280;71899;51.992;8.648;2024-02-16T07:57:39;99654.03;;;13.96
82297;BMP280;71899;51.992;8.648;2024-02-16T08:00:05;99651.72;;;14.02
82297;BMP280;71899;51.992;8.648;2024-02-16T08:02:31;99651.13;;;14.19
82297;BMP280;71899;51.992;8.648;2024-02-16T08:04:56;99652.66;;;14.22
82297;BMP280;71899;51.992;8.648;2024-02-16T08:07:21;99635.94;;;14.23
82297;BMP280;71899;51.992;8.648;2024-02-16T08:09:47;99646.59;;;14.31
82297;BMP280;71899;51.992;8.648;2024-02-16T08:12:13;99634.63;;;14.17
82297;BMP280;71899;51.992;8.648;2024-02-16T08:14:39;99656.13;;;14.22
82297;BMP280;71899;51.992;8.648;2024-02-16T08:17:06;99645.72;;;14.21
82297;BMP280;71899;51.992;8.648;2024-02-16T08:19:32;99651.38;;;14.16
82297;BMP280;71899;51.992;8.648;2024-02-16T08:22:04;99656.63;;;14.37
82297;BMP280;71899;51.992;8.648;2024-02-16T08:24:34;99661.41;;;14.32
82297;BMP280;71899;51.992;8.648;2024-02-16T08:26:59;99670.53;;;14.28
82297;BMP280;71899;51.992;8.648;2024-02-16T08:29:24;99667.03;;;14.48
82297;BMP280;71899;51.992;8.648;2024-02-16T08:31:51;99669.53;;;14.59
82297;BMP280;71899;51.992;8.648;2024-02-16T08:34:16;99672.31;;;14.48
82297;BMP280;71899;51.992;8.648;2024-02-16T08:36:49;99664.16;;;14.61
82297;BMP280;71899;51.992;8.648;2024-02-16T08:39:15;99664.41;;;14.48
82297;BMP280;71899;51.992;8.648;2024-02-16T08:41:41;99670.66;;;14.57
82297;BMP280;71899;51.992;8.648;2024-02-16T08:44:07;99666.06;;;14.49
82297;BMP280;71899;51.992;8.648;2024-02-16T08:46:38;99671.78;;;14.73
82297;BMP280;71899;51.992;8.648;2024-02-16T08:49:05;99674.03;;;14.87
82297;BMP280;71899;51.992;8.648;2024-02-16T08:51:33;99685.81;;;14.83
82297;BMP280;71899;51.992;8.648;2024-02-16T08:53:59;99680.69;;;14.82
82297;BMP280;71899;51.992;8.648;2024-02-16T08:56:25;99693.44;;;15.06
82297;BMP280;71899;51.992;8.648;2024-02-16T08:58:50;99694.44;;;15.05
82297;BMP280;71899;51.992;8.648;2024-02-16T09:01:16;99706.59;;;14.96
82297;BMP280;71899;51.992;8.648;2024-02-16T09:03:42;99705.66;;;15.07
82297;BMP280;71899;51.992;8.648;2024-02-16T09:06:07;99720.09;;;15.22
82297;BMP280;71899;51.992;8.648;2024-02-16T09:08:32;99716.63;;;15.21
82297;BMP280;71899;51.992;8.648;2024-02-16T09:11:00;99714.13;;;15.10
82297;BMP280;71899;51.992;8.648;2024-02-16T09:13:26;99723.28;;;15.16
82297;BMP280;71899;51.992;8.648;2024-02-16T09:15:51;99727.44;;;15.28
82297;BMP280;71899;51.992;8.648;2024-02-16T09:18:19;99711.34;;;15.21
82297;BMP280;71899;51.992;8.648;2024-02-16T09:20:44;99725.06;;;15.15
82297;BMP280;71899;51.992;8.648;2024-02-16T09:23:10;99723.69;;;15.30
82297;BMP280;71899;51.992;8.648;2024-02-16T09:25:35;99724.25;;;15.44
82297;BMP280;71899;51.992;8.648;2024-02-16T09:28:00;99729.50;;;15.34
82297;BMP280;71899;51.992;8.648;2024-02-16T09:30:26;99729.50;;;15.24
82297;BMP280;71899;51.992;8.648;2024-02-16T09:32:51;99729.50;;;15.15
82297;BMP280;71899;51.992;8.648;2024-02-16T09:35:17;99724.41;;;15.23
82297;BMP280;71899;51.992;8.648;2024-02-16T09:37:42;99728.53;;;15.25
82297;BMP280;71899;51.992;8.648;2024-02-16T09:40:08;99740.88;;;15.34
82297;BMP280;71899;51.992;8.648;2024-02-16T09:42:37;99738.28;;;15.54
82297;BMP280;71899;51.992;8.648;2024-02-16T09:45:05;99747.59;;;15.58
82297;BMP280;71899;51.992;8.648;2024-02-16T09:47:33;99741.91;;;15.62
82297;BMP280;71899;51.992;8.648;2024-02-16T09:50:00;99749.25;;;15.59
82297;BMP280;71899;51.992;8.648;2024-02-16T09:52:26;99738.84;;;15.57
82297;BMP280;71899;51.992;8.648;2024-02-16T09:54:51;99749.25;;;15.59
82297;BMP280;71899;51.992;8.648;2024-02-16T09:57:17;99752.16;;;15.75
82297;BMP280;71899;51.992;8.648;2024-02-16T09:59:43;99753.25;;;15.63
82297;BMP280;71899;51.992;8.648;2024-02-16T10:02:09;99755.50;;;15.58
82297;BMP280;71899;51.992;8.648;2024-02-16T10:04:34;99753.97;;;15.55
82297;BMP280;71899;51.992;8.648;2024-02-16T10:07:00;99753.81;;;15.66
82297;BMP280;71899;51.992;8.648;2024-02-16T10:09:28;99748.81;;;15.63
82297;BMP280;71899;51.992;8.648;2024-02-16T10:11:58;99757.44;;;15.75
82297;BMP280;71899;51.992;8.648;2024-02-16T10:14:23;99755.34;;;15.78
82297;BMP280;71899;51.992;8.648;2024-02-16T10:17:19;99763.06;;;15.99
82297;BMP280;71899;51.992;8.648;2024-02-16T10:19:55;99762.97;;;16.37
82297;BMP280;71899;51.992;8.648;2024-02-16T10:22:20;99766.88;;;16.43
82297;BMP280;71899;51.992;8.648;2024-02-16T10:24:48;99770.03;;;16.56
82297;BMP280;71899;51.992;8.648;2024-02-16T10:27:15;99768.72;;;16.70
82297;BMP280;71899;51.992;8.648;2024-02-16T10:29:43;99778.63;;;16.95
82297;BMP280;71899;51.992;8.648;2024-02-16T10:32:09;99784.06;;;16.94
82297;BMP280;71899;51.992;8.648;2024-02-16T10:34:36;99783.94;;;17.13
82297;BMP280;71899;51.992;8.648;2024-02-16T10:37:02;99787.13;;;17.16
82297;BMP280;71899;51.992;8.648;2024-02-16T10:39:28;99789.72;;;17.44
82297;BMP280;71899;51.992;8.648;2024-02-16T10:41:56;99796.91;;;17.51
82297;BMP280;71899;51.992;8.648;2024-02-16T10:44:26;99808.19;;;17.71
82297;BMP280;71899;51.992;8.648;2024-02-16T10:46:53;99803.28;;;17.76
82297;BMP280;71899;51.992;8.648;2024-02-16T10:49:18;99786.03;;;17.54
82297;BMP280;71899;51.992;8.648;2024-02-16T10:51:52;99796.38;;;17.48
82297;BMP280;71899;51.992;8.648;2024-02-16T10:54:22;99793.09;;;17.63
82297;BMP280;71899;51.992;8.648;2024-02-16T10:56:47;99800.91;;;17.55
82297;BMP280;71899;51.992;8.648;2024-02-16T11:01:32;99785.16;;;17.81
82297;BMP280;71899;51.992;8.648;2024-02-16T11:04:03;99784.53;;;17.69
82297;BMP280;71899;51.992;8.648;2024-02-16T11:06:28;99785.88;;;17.56
82297;BMP280;71899;51.992;8.648;2024-02-16T11:08:54;99792.03;;;17.11
82297;BMP280;71899;51.992;8.648;2024-02-16T11:11:25;99793.00;;;17.10
82297;BMP280;71899;51.992;8.648;2024-02-16T11:13:54;99794.31;;;17.24
82297;BMP280;71899;51.992;8.648;2024-02-16T11:16:20;99805.81;;;17.32
82297;BMP280;71899;51.992;8.648;2024-02-16T11:18:47;99801.22;;;17.07
82297;BMP280;71899;51.992;8.648;2024-02-16T11:21:17;99802.59;;;17.11
82297;BMP280;71899;51.992;8.648;2024-02-16T11:23:42;99798.63;;;17.25
82297;BMP280;71899;51.992;8.648;2024-02-16T11:26:12;99805.50;;;17.35
82297;BMP280;71899;51.992;8.648;2024-02-16T11:28:39;99809.38;;;17.76
82297;BMP280;71899;51.992;8.648;2024-02-16T11:31:05;99814.09;;;17.82
82297;BMP280;71899;51.992;8.648;2024-02-16T11:33:31;99803.53;;;17.65
82297;BMP280;71899;51.992;8.648;2024-02-16T11:35:58;99814.38;;;17.97
82297;BMP280;71899;51.992;8.648;2024-02-16T11:38:24;99814.84;;;17.75
82297;BMP280;71899;51.992;8.648;2024-02-16T11:40:57;99813.63;;;17.69
82297;BMP280;71899;51.992;8.648;2024-02-16T11:43:23;99815.09;;;17.37
82297;BMP280;71899;51.992;8.648;2024-02-16T11:45:49;99820.97;;;17.48
82297;BMP280;71899;51.992;8.648;2024-02-16T11:48:22;99829.03;;;17.56
82297;BMP280;71899;51.992;8.648;2024-02-16T11:50:48;99835.28;;;17.28
82297;BMP280;71899;51.992;8.648;2024-02-16T11:53:17;99833.78;;;16.98
82297;BMP280;71899;51.992;8.648;2024-02-16T11:55:46;99827.53;;;17.26
82297;BMP280;71899;51.992;8.648;2024-02-16T11:58:13;99837.63;;;16.76
82297;BMP280;71899;51.992;8.648;2024-02-16T12:00:40;99840.47;;;16.36
82297;BMP280;71899;51.992;8.648;2024-02-16T12:03:06;99842.41;;;16.44
82297;BMP280;71899;51.992;8.648;2024-02-16T12:05:32;99837.13;;;16.34
82297;BMP280;71899;51.992;8.648;2024-02-16T12:07:58;99841.31;;;16.27
82297;BMP280;71899;51.992;8.648;2024-02-16T12:10:24;99844.41;;;16.23
82297;BMP280;71899;51.992;8.648;2024-02-16T12:12:50;99841.97;;;16.68
82297;BMP280;71899;51.992;8.648;2024-02-16T12:15:15;99840.94;;;16.78
82297;BMP280;71899;51.992;8.648;2024-02-16T12:17:42;99844.63;;;16.95
82297;BMP280;71899;51.992;8.648;2024-02-16T12:20:12;99852.53;;;16.95
82297;BMP280;71899;51.992;8.648;2024-02-16T12:22:38;99834.84;;;17.05
82297;BMP280;71899;51.992;8.648;2024-02-16T12:25:04;99838.50;;;17.04
82297;BMP280;71899;51.992;8.648;2024-02-16T12:27:29;99837.88;;;17.38
82297;BMP280;71899;51.992;8.648;2024-02-16T12:29:55;99847.03;;;17.43
82297;BMP280;71899;51.992;8.648;2024-02-16T12:32:20;99850.63;;;17.69
82297;BMP280;71899;51.992;8.648;2024-02-16T12:34:46;99846.25;;;17.60
82297;BMP280;71899;51.992;8.648;2024-02-16T12:37:11;99845.72;;;17.57
82297;BMP280;71899;51.992;8.648;2024-02-16T12:39:37;99852.69;;;17.58
82297;BMP280;71899;51.992;8.648;2024-02-16T12:42:02;99851.13;;;17.55
82297;BMP280;71899;51.992;8.648;2024-02-16T12:44:28;99851.69;;;17.59
82297;BMP280;71899;51.992;8.648;2024-02-16T12:46:53;99859.19;;;17.81
82297;BMP280;71899;51.992;8.648;2024-02-16T12:49:19;99859.88;;;17.56
82297;BMP280;71899;51.992;8.648;2024-02-16T12:51:48;99861.31;;;17.50
82297;BMP280;71899;51.992;8.648;2024-02-16T12:54:13;99854.41;;;17.67
82297;BMP280;71899;51.992;8.648;2024-02-16T12:56:42;99859.94;;;17.46
82297;BMP280;71899;51.992;8.648;2024-02-16T12:59:07;99866.28;;;17.35
82297;BMP280;71899;51.992;8.648;2024-02-16T13:01:32;99868.91;;;17.08
82297;BMP280;71899;51.992;8.648;2024-02-16T13:03:58;99879.13;;;16.94
82297;BMP280;71899;51.992;8.648;2024-02-16T13:06:23;99868.31;;;16.87
82297;BMP280;71899;51.992;8.648;2024-02-16T13:08:48;99871.28;;;16.65
82297;BMP280;71899;51.992;8.648;2024-02-16T13:11:14;99877.25;;;16.48
82297;BMP280;71899;51.992;8.648;2024-02-16T13:13:39;99873.63;;;16.68
82297;BMP280;71899;51.992;8.648;2024-02-16T13:16:05;99876.22;;;16.87
82297;BMP280;71899;51.992;8.648;2024-02-16T13:18:30;99869.63;;;17.01
82297;BMP280;71899;51.992;8.648;2024-02-16T13:20:56;99868.63;;;17.02
82297;BMP280;71899;51.992;8.648;2024-02-16T13:23:21;99869.28;;;16.86
82297;BMP280;71899;51.992;8.648;2024-02-16T13:25:46;99865.28;;;16.72
82297;BMP280;71899;51.992;8.648;2024-02-16T13:28:12;99878.09;;;16.58
82297;BMP280;71899;51.992;8.648;2024-02-16T13:30:37;99872.16;;;16.93
82297;BMP280;71899;51.992;8.648;2024-02-16T13:33:03;99870.47;;;17.01
82297;BMP280;71899;51.992;8.648;2024-02-16T13:35:29;99876.00;;;17.08
82297;BMP280;71899;51.992;8.648;2024-02-16T13:37:54;99888.19;;;16.81
82297;BMP280;71899;51.992;8.648;2024-02-16T13:40:19;99883.63;;;16.55
82297;BMP280;71899;51.992;8.648;2024-02-16T13:42:46;99890.72;;;16.35
82297;BMP280;71899;51.992;8.648;2024-02-16T13:45:11;99894.91;;;16.47
82297;BMP280;71899;51.992;8.648;2024-02-16T13:47:37;99903.41;;;16.12
82297;BMP280;71899;51.992;8.648;2024-02-16T13:50:06;99902.97;;;16.26
82297;BMP280;71899;51.992;8.648;2024-02-16T13:52:31;99899.78;;;16.23
82297;BMP280;71899;51.992;8.648;2024-02-16T13:54:56;99905.47;;;16.18
82297;BMP280;71899;51.992;8.648;2024-02-16T13:57:22;99916.84;;;16.28
82297;BMP280;71899;51.992;8.648;2024-02-16T13:59:47;99907.66;;;16.13
82297;BMP280;71899;51.992;8.648;2024-02-16T14:02:13;99910.88;;;15.98
82297;BMP280;71899;51.992;8.648;2024-02-16T14:04:38;99914.59;;;15.76